createdAt,value
2023-04-11T00:01:16.410Z,98474.61690025586
2023-04-11T00:04:17.595Z,98477.36589653348
2023-04-11T00:07:16.759Z,98473.94346245138
2023-04-11T00:11:16.501Z,98469.47030834503
2023-04-11T00:14:18.739Z,98467.30363530536
2023-04-11T00:17:17.943Z,98471.55024163082
2023-04-11T00:21:16.721Z,98460.96751257037
2023-04-11T00:24:16.940Z,98452.29749235195
2023-04-11T00:27:16.986Z,98452.53903888946
2023-04-11T00:31:16.935Z,98447.52716291798
2023-04-11T00:34:17.695Z,98443.02440267902
2023-04-11T00:37:18.327Z,98446.18859979519
2023-04-11T00:41:15.849Z,98455.15357449513
2023-04-11T00:44:16.176Z,98453.86952514418
2023-04-11T00:47:16.600Z,98458.8906720994
2023-04-11T00:51:18.014Z,98462.05085460584
2023-04-11T00:54:17.497Z,98467.03491648455
2023-04-11T00:57:17.576Z,98465.9411591936
2023-04-11T01:01:16.984Z,98460.77784339717
2023-04-11T01:04:17.903Z,98462.56147145883
2023-04-11T01:07:17.962Z,98464.41528720016
2023-04-11T01:11:18.727Z,98469.9360136633
2023-04-11T01:14:19.459Z,98475.46604858531
2023-04-11T01:17:17.262Z,98474.84315993697
2023-04-11T01:21:19.088Z,98469.53031560582
2023-04-11T01:24:16.868Z,98463.02234100297
2023-04-11T01:27:16.685Z,98461.08751178898
2023-04-11T01:31:16.560Z,98456.79217227543
2023-04-11T01:34:19.990Z,98452.79778275534
2023-04-11T01:37:16.998Z,98441.0742957837
2023-04-11T01:41:17.050Z,98438.50731913828
2023-04-11T01:44:17.294Z,98431.74494667766
2023-04-11T01:47:16.727Z,98429.344559328
2023-04-11T01:51:16.105Z,98426.68903398933
2023-04-11T01:54:16.296Z,98415.79521487768
2023-04-11T01:57:16.308Z,98416.00445699881
2023-04-11T02:01:17.718Z,98404.59269907977
2023-04-11T02:04:17.382Z,98402.73816527182
2023-04-11T02:07:17.116Z,98400.34414258093
2023-04-11T02:11:15.833Z,98396.98983287884
2023-04-11T02:14:18.759Z,98399.72111529222
2023-04-11T02:17:18.067Z,98388.3739899128
2023-04-11T02:21:16.064Z,98383.9066865103
2023-04-11T02:24:16.804Z,98383.40647925514
2023-04-11T02:27:16.543Z,98392.80194163883
2023-04-11T02:31:16.059Z,98402.99102507561
2023-04-11T02:34:16.489Z,98405.33118121747
2023-04-11T02:37:16.165Z,98406.73101796868
2023-04-11T02:41:15.832Z,98399.86013573235
2023-04-11T02:44:17.852Z,98398.68981436176
2023-04-11T02:47:16.220Z,98394.51162621148
2023-04-11T02:51:16.754Z,98391.99506630153
2023-04-11T02:54:17.191Z,98385.70258698896
2023-04-11T02:57:17.971Z,98376.18334573758
2023-04-11T03:01:19.104Z,98374.09999737718
2023-04-11T03:04:16.928Z,98371.07563466836
2023-04-11T03:07:17.032Z,98371.91153263347
2023-04-11T03:11:16.082Z,98373.9380871089
2023-04-11T03:14:16.366Z,98368.72631628285
2023-04-11T03:17:16.270Z,98359.9999627225
2023-04-11T03:21:16.294Z,98369.4340143737
2023-04-11T03:24:16.502Z,98375.46509945544
2023-04-11T03:27:16.284Z,98382.94570072714
2023-04-11T03:31:18.238Z,98389.67664962709
2023-04-11T03:34:18.217Z,98395.92133700862
2023-04-11T03:37:16.891Z,98401.30989088486
2023-04-11T03:41:16.217Z,98404.53819011606
2023-04-11T03:44:16.473Z,98398.61843049312
2023-04-11T03:47:16.416Z,98390.60148369928
2023-04-11T03:51:16.856Z,98395.40397987267
2023-04-11T03:54:17.041Z,98394.92599256187
2023-04-11T03:57:17.027Z,98399.88681793363
2023-04-11T04:01:16.250Z,98403.69366131278
2023-04-11T04:04:16.728Z,98393.45813754461
2023-04-11T04:07:18.287Z,98389.64225722667
2023-04-11T04:11:16.823Z,98384.86610578079
2023-04-11T04:14:17.024Z,98386.44722496845
2023-04-11T04:17:17.058Z,98392.23252646759
2023-04-11T04:21:16.958Z,98398.83981914812
2023-04-11T04:24:17.073Z,98413.75627046642
2023-04-11T04:27:19.110Z,98414.24191539834
2023-04-11T04:31:22.715Z,98417.93564097358
2023-04-11T04:34:22.056Z,98431.33934325342
2023-04-11T04:37:23.492Z,98440.44196688966
2023-04-11T04:41:16.656Z,98438.69535526652
2023-04-11T04:44:17.270Z,98442.59207618289
2023-04-11T04:47:18.165Z,98434.40022894603
2023-04-11T04:51:16.043Z,98437.42947084254
2023-04-11T04:54:19.458Z,98432.05905364263
2023-04-11T04:57:16.416Z,98432.56119435924
2023-04-11T05:01:17.258Z,98427.21783629611
2023-04-11T05:04:17.567Z,98432.87097132084
2023-04-11T05:07:17.137Z,98437.22353498683
2023-04-11T05:11:16.471Z,98439.87447855502
2023-04-11T05:14:16.878Z,98432.93738246887
2023-04-11T05:17:17.629Z,98441.33526529848
2023-04-11T05:21:17.023Z,98438.9467722034
2023-04-11T05:24:16.922Z,98438.63644279496
2023-04-11T05:27:17.509Z,98424.58038333591
2023-04-11T05:31:17.296Z,98422.97598867862
2023-04-11T05:34:16.874Z,98420.9601377713
2023-04-11T05:37:17.063Z,98424.40235667875
2023-04-11T05:41:16.505Z,98411.74740689863
2023-04-11T05:44:16.597Z,98401.47106121393
2023-04-11T05:47:16.499Z,98403.95835376883
2023-04-11T05:51:17.106Z,98397.53380651155
2023-04-11T05:54:31.248Z,98393.08443764085
2023-04-11T05:57:17.844Z,98395.29962057946
2023-04-11T06:01:18.737Z,98396.1593951171
2023-04-11T06:04:17.210Z,98395.6348028492
2023-04-11T06:07:17.295Z,98399.37952514364
2023-04-11T06:11:17.177Z,98413.80372496568
2023-04-11T06:14:17.209Z,98413.86942779408
2023-04-11T06:17:17.079Z,98419.68943002204
2023-04-11T06:21:16.703Z,98419.2577052949
2023-04-11T06:24:33.129Z,98427.12428175077
2023-04-11T06:27:16.765Z,98431.35819762136
2023-04-11T06:31:15.876Z,98435.24214951397
2023-04-11T06:34:16.495Z,98443.03651620947
2023-04-11T06:37:17.224Z,98444.02274489835
2023-04-11T06:41:16.594Z,98443.77749803553
2023-04-11T06:44:17.014Z,98438.89034894254
2023-04-11T06:47:17.486Z,98438.67602349754
2023-04-11T06:51:17.092Z,98430.16020455236
2023-04-11T06:54:17.711Z,98428.10988111694
2023-04-11T06:57:18.909Z,98424.90214132411
2023-04-11T07:01:16.474Z,98420.77122151206
2023-04-11T07:04:17.376Z,98409.81978769676
2023-04-11T07:07:18.438Z,98403.07944435207
2023-04-11T07:11:16.677Z,98399.47863107699
2023-04-11T07:14:16.705Z,98400.90877330826
2023-04-11T07:17:16.813Z,98394.5928301991
2023-04-11T07:21:16.658Z,98386.15029704651
2023-04-11T07:24:18.987Z,98384.5528273184
2023-04-11T07:27:17.779Z,98381.47448942876
2023-04-11T07:31:19.750Z,98373.99212964566
2023-04-11T07:34:16.977Z,98369.66415064255
2023-04-11T07:37:19.615Z,98370.67606833181
2023-04-11T07:41:18.637Z,98372.10659040937
2023-04-11T07:44:17.784Z,98373.24839141824
2023-04-11T07:47:17.752Z,98378.48073385037
2023-04-11T07:51:17.494Z,98389.70163969093
2023-04-11T07:54:18.675Z,98391.33290021929
2023-04-11T07:57:17.728Z,98394.79063849557
2023-04-11T08:01:23.731Z,98387.31836161182
2023-04-11T08:04:19.107Z,98383.6246483917
2023-04-11T08:07:17.778Z,98385.87247059461
2023-04-11T08:11:16.787Z,98375.96609239076
2023-04-11T08:14:16.961Z,98373.81000726692
2023-04-11T08:17:27.093Z,98375.14635829558
2023-04-11T08:21:16.484Z,98360.63787009234
2023-04-11T08:24:17.913Z,98358.75733501754
2023-04-11T08:27:16.890Z,98357.3145950017
2023-04-11T08:31:16.158Z,98349.90157222687
2023-04-11T08:34:16.976Z,98349.61253336721
2023-04-11T08:37:16.687Z,98360.2124014186
2023-04-11T08:41:16.634Z,98358.00104020766
2023-04-11T08:44:16.905Z,98355.28973425423
2023-04-11T08:47:16.806Z,98351.11105340588
2023-04-11T08:51:22.169Z,98347.04473122544
2023-04-11T08:54:17.343Z,98349.1413881324
2023-04-11T08:57:22.260Z,98354.67476031116
2023-04-11T09:01:32.981Z,98359.04360436072
2023-04-11T09:04:17.039Z,98356.4825377557
2023-04-11T09:07:17.590Z,98352.3351025094
2023-04-11T09:11:17.042Z,98358.71550957332
2023-04-11T09:14:17.011Z,98348.0317746892
2023-04-11T09:17:17.355Z,98345.43164262483
2023-04-11T09:21:18.132Z,98339.5470056676
2023-04-11T09:24:17.276Z,98335.4948681309
2023-04-11T09:27:17.494Z,98343.15179654001
2023-04-11T09:31:16.544Z,98341.70751947221
2023-04-11T09:34:22.904Z,98330.3553755875
2023-04-11T09:37:16.904Z,98324.45720624726
2023-04-11T09:41:29.329Z,98319.58639211861
2023-04-11T09:44:16.615Z,98312.81371923778
2023-04-11T09:47:16.582Z,98300.79991048995
2023-04-11T09:51:31.737Z,98291.68765481927
2023-04-11T09:54:20.419Z,98289.51033807715
2023-04-11T09:57:18.643Z,98287.27157237567
2023-04-11T10:01:18.258Z,98277.09299222917
2023-04-11T10:04:16.894Z,98269.77140902735
2023-04-11T10:07:18.612Z,98265.42746387901
2023-04-11T10:11:18.997Z,98264.91241858661
2023-04-11T10:14:41.976Z,98262.29759561387
2023-04-11T10:17:21.978Z,98261.48904461262
2023-04-11T10:21:37.812Z,98264.94606860809
2023-04-11T10:24:18.380Z,98263.7991685691
2023-04-11T10:51:22.811Z,98239.7538996492
2023-04-11T10:54:24.346Z,98246.45277537596
2023-04-11T10:57:17.401Z,98240.68468240641
2023-04-11T11:01:26.637Z,98236.998626288
2023-04-11T11:04:18.113Z,98230.53993188508
2023-04-11T11:07:17.652Z,98236.50810919258
2023-04-11T11:11:16.861Z,98232.08038641873
2023-04-11T11:14:27.760Z,98224.30066047423
2023-04-11T11:17:17.747Z,98222.99750708517
2023-04-11T11:31:16.745Z,98218.34107880021
2023-04-11T11:34:26.796Z,98198.96257282663
2023-04-11T11:37:16.581Z,98203.76981731776
2023-04-11T11:41:17.130Z,98212.64659703699
2023-04-11T11:44:25.855Z,98204.10617757075
2023-04-11T11:47:17.393Z,98192.84983126725
2023-04-11T11:51:17.041Z,98186.59981042813
2023-04-11T11:54:17.404Z,98181.93053312557
2023-04-11T11:57:20.382Z,98180.05854533611
2023-04-11T12:01:17.582Z,98177.35867165668
2023-04-11T12:04:19.357Z,98167.64731010862
2023-04-11T12:07:20.813Z,98160.43339354829
2023-04-11T12:11:17.313Z,98154.10500707875
2023-04-11T12:14:22.224Z,98143.98278067634
2023-04-11T12:17:17.112Z,98146.5580100322
2023-04-11T12:21:18.014Z,98139.7979751609
2023-04-11T12:24:17.467Z,98138.11087789013
2023-04-11T12:27:17.334Z,98134.7158969244
2023-04-11T12:31:16.690Z,98117.79950628639
2023-04-11T12:34:17.821Z,98127.4976253577
2023-04-11T12:37:16.826Z,98125.3951162272
2023-04-11T12:41:31.658Z,98112.7302388154
2023-04-11T12:44:16.200Z,98124.66301043614
2023-04-11T12:47:16.560Z,98115.3290739373
2023-04-11T12:51:16.774Z,98115.66972636907
2023-04-11T12:54:17.134Z,98112.13146443314
2023-04-11T12:57:17.372Z,98116.72585550018
2023-04-11T13:01:17.834Z,98112.93330310655
2023-04-11T13:04:17.388Z,98116.84683207177
2023-04-11T13:07:17.366Z,98113.14927743889
2023-04-11T13:11:16.677Z,98106.24313652764
2023-04-11T13:14:17.205Z,98102.70165582192
2023-04-11T13:17:17.024Z,98097.86694738577
2023-04-11T13:21:16.829Z,98098.27122985387
2023-04-11T13:24:17.355Z,98109.3000387943
2023-04-11T13:27:17.348Z,98112.87613253786
2023-04-11T13:31:16.146Z,98107.16395551257
2023-04-11T13:34:16.829Z,98118.91955370386
2023-04-11T13:37:16.390Z,98121.16509978328
2023-04-11T13:41:16.511Z,98102.93411698513
2023-04-11T13:44:16.845Z,98102.88390532936
2023-04-11T13:47:16.746Z,98103.94456681082
2023-04-11T13:51:16.566Z,98105.30306646583
2023-04-11T13:54:16.739Z,98111.16259224935
2023-04-11T13:57:16.701Z,98095.23886050141
2023-04-11T14:01:18.263Z,98102.93742697182
2023-04-11T14:04:17.788Z,98088.30284464367
2023-04-11T14:07:17.340Z,98087.49110514796
2023-04-11T14:11:16.481Z,98096.15533242433
2023-04-11T14:14:16.920Z,98089.17930034435
2023-04-11T14:17:16.831Z,98082.03438143752
2023-04-11T14:21:16.756Z,98086.2314709599
2023-04-11T14:24:16.930Z,98065.74233415113
2023-04-11T14:27:17.163Z,98060.40538053682
2023-04-11T14:31:16.988Z,98066.665445364
2023-04-11T14:34:19.040Z,98064.82565943443
2023-04-11T14:37:17.154Z,98068.89326817807
2023-04-11T14:41:16.140Z,98055.91903344073
2023-04-11T14:44:17.133Z,98059.83307214582
2023-04-11T14:47:16.398Z,98060.84325887244
2023-04-11T14:51:16.596Z,98067.21671523288
2023-04-11T14:54:17.201Z,98063.22616577556
2023-04-11T14:57:17.052Z,98056.21651052857
2023-04-11T15:01:18.092Z,98050.73192671803
2023-04-11T15:04:17.543Z,98054.68010384803
2023-04-11T15:07:18.702Z,98054.06624032457
2023-04-11T15:11:17.014Z,98054.95500688769
2023-04-11T15:14:16.940Z,98049.23193590515
2023-04-11T15:17:16.833Z,98051.57658847561
2023-04-11T15:21:16.509Z,98048.78594331414
2023-04-11T15:24:18.621Z,98045.20166026222
2023-04-11T15:27:17.035Z,98056.17830820687
2023-04-11T15:31:23.746Z,98059.73230637457
2023-04-11T15:34:18.464Z,98052.28386126817
2023-04-11T15:37:17.384Z,98048.99289245922
2023-04-11T15:41:16.979Z,98043.3548197608
2023-04-11T15:44:17.128Z,98043.9674979426
2023-04-11T15:47:19.131Z,98035.4406802746
2023-04-11T15:51:17.640Z,98030.74010906585
2023-04-11T15:54:18.154Z,98031.99556512391
2023-04-11T15:57:20.036Z,98028.9660114016
2023-04-11T16:01:19.160Z,98019.95751152844
2023-04-11T16:04:20.547Z,98019.95009635677
2023-04-11T16:07:18.741Z,98025.5860717704
2023-04-11T16:11:16.646Z,98020.3653894246
2023-04-11T16:14:16.976Z,98015.72803375407
2023-04-11T16:17:21.072Z,98015.5747208715
2023-04-11T16:21:18.016Z,98017.48350884709
2023-04-11T16:24:17.021Z,98012.17652032983
2023-04-11T16:27:18.703Z,97999.37329935361
2023-04-11T16:31:25.673Z,98008.46302896264
2023-04-11T16:34:17.449Z,98018.05707845444
2023-04-11T16:37:17.305Z,98004.61252970855
2023-04-11T16:41:18.211Z,97999.86452716748
2023-04-11T16:44:18.360Z,98003.22017428922
2023-04-11T16:47:17.895Z,98012.79587599465
2023-04-11T16:51:18.593Z,98025.57888893959
2023-04-11T16:54:17.063Z,98022.28025229737
2023-04-11T16:57:19.972Z,98017.08570295725
2023-04-11T17:01:16.868Z,98007.2474286295
2023-04-11T17:04:18.612Z,98001.2339106252
2023-04-11T17:07:19.804Z,98001.21136510413
2023-04-11T17:11:18.896Z,97997.28221975533
2023-04-11T17:31:20.595Z,98002.99198063086
2023-04-11T17:34:18.368Z,98003.54094545207
2023-04-11T17:37:17.548Z,98000.97756760796
2023-04-11T17:41:16.037Z,98003.47901676538
2023-04-11T17:44:16.505Z,97999.53993526025
2023-04-11T17:51:17.197Z,98013.45629655303
2023-04-11T17:54:17.439Z,98015.85425755632
2023-04-11T17:57:18.288Z,98015.22940590468
2023-04-11T18:01:16.535Z,98013.51013547373
2023-04-11T18:04:20.321Z,98015.1228670181
2023-04-11T18:11:16.273Z,98007.01327603863
2023-04-11T18:14:16.775Z,98003.20499932903
2023-04-11T18:17:17.021Z,98008.27102795609
2023-04-11T18:21:16.626Z,98008.69749356693
2023-04-11T18:24:17.053Z,98009.02883584159
2023-04-11T18:27:17.021Z,98007.05677031768
2023-04-11T18:31:16.730Z,98021.72898091852
2023-04-11T18:34:16.912Z,98019.83681729359
2023-04-11T18:37:16.407Z,98023.02760105101
2023-04-11T18:41:16.783Z,98024.0287240361
2023-04-11T18:44:16.522Z,98026.19966036489
2023-04-11T18:47:17.422Z,98029.75388836225
2023-04-11T19:01:17.671Z,98032.32442630573
2023-04-11T19:04:17.030Z,98035.90778287016
2023-04-11T19:07:17.182Z,98035.50350242562
2023-04-11T19:11:17.364Z,98044.76779797948
2023-04-11T19:14:16.596Z,98050.5998561954
2023-04-11T19:17:17.668Z,98050.93382511783
2023-04-11T19:21:16.975Z,98054.73045498288
2023-04-11T19:24:20.502Z,98047.23694630798
2023-04-11T19:27:19.372Z,98045.81618013057
2023-04-11T19:31:16.857Z,98063.82074362703
2023-04-11T19:34:23.549Z,98062.50479186852
2023-04-11T19:37:19.897Z,98060.38761307519
2023-04-11T19:41:17.811Z,98061.0234576423
2023-04-11T19:44:17.630Z,98062.55059857838
2023-04-11T19:47:17.223Z,98056.86729438811
2023-04-11T19:51:18.842Z,98055.38505929192
2023-04-11T19:54:18.243Z,98055.34286268572
2023-04-11T19:57:18.190Z,98045.52991172114
2023-04-11T20:01:17.349Z,98041.88977717861
2023-04-11T20:04:22.046Z,98040.43267665025
2023-04-11T20:07:16.766Z,98041.43641270029
2023-04-11T20:11:18.061Z,98035.85268556372
2023-04-11T20:14:16.892Z,98034.84777534315
2023-04-11T20:17:18.021Z,98042.6206600039
2023-04-11T20:21:16.826Z,98041.5306390409
2023-04-11T20:24:18.313Z,98049.00957183792
2023-04-11T20:27:17.266Z,98045.1577142971
2023-04-11T20:31:17.319Z,98054.44265926443
2023-04-11T20:34:17.363Z,98052.99529473323
2023-04-11T20:37:18.897Z,98053.91431252628
2023-04-11T20:41:19.594Z,98049.32531987123
2023-04-11T20:44:18.179Z,98039.35617642794
2023-04-11T20:47:17.328Z,98031.23508411339
2023-04-11T20:51:17.931Z,98022.25546987253
2023-04-11T20:54:16.940Z,98024.46927702663
2023-04-11T20:57:24.551Z,98028.77364163591
2023-04-11T21:01:16.946Z,98030.90942284575
2023-04-11T21:04:19.102Z,98025.90865876724
2023-04-11T21:07:18.552Z,98028.75248457215
2023-04-11T21:11:16.995Z,98025.96355979059
2023-04-11T21:14:17.291Z,98031.15898996062
2023-04-11T21:17:17.424Z,98035.93836852796
2023-04-11T21:21:16.807Z,98040.61517028701
2023-04-11T21:24:16.808Z,98034.52588361164
2023-04-11T21:27:16.955Z,98032.87131581426
2023-04-11T21:31:16.884Z,98028.80827201626
2023-04-11T21:34:17.065Z,98024.62417832953
2023-04-11T21:37:17.122Z,98018.55179222602
2023-04-11T21:41:16.659Z,98014.45627344926
2023-04-11T21:44:16.958Z,98013.20582796595
2023-04-11T21:47:17.312Z,98004.76615038072
2023-04-11T21:51:16.885Z,97996.35693398089
2023-04-11T21:54:17.219Z,97996.60772189428
2023-04-11T21:57:17.176Z,97994.9049246721
2023-04-11T22:01:17.765Z,97996.11235363026
2023-04-11T22:04:17.920Z,97993.28718224859
2023-04-11T22:07:18.402Z,97988.88794386465
2023-04-11T22:11:17.428Z,97985.489969185
2023-04-11T22:14:17.037Z,97986.64598087534
2023-04-11T22:17:16.694Z,97980.20672642665
2023-04-11T22:21:19.947Z,97976.58797760139
2023-04-11T22:24:16.853Z,97980.45588901894
2023-04-11T22:27:18.496Z,97974.44299638591
2023-04-11T22:31:16.385Z,97973.07735109268
2023-04-11T22:34:16.778Z,97977.42652356585
2023-04-11T22:37:16.766Z,97971.43776715003
2023-04-11T22:41:17.120Z,97969.0543088706
2023-04-11T22:44:17.369Z,97963.6837917959
2023-04-11T22:47:17.060Z,97966.25089168885
2023-04-11T22:51:16.568Z,97964.06815104024
2023-04-11T22:54:16.580Z,97964.80477252779
2023-04-11T22:57:16.556Z,97958.22760193165
2023-04-11T23:01:16.438Z,97953.24488109983
2023-04-11T23:04:16.790Z,97950.86985238567
2023-04-11T23:07:17.339Z,97947.6152908968
2023-04-11T23:11:16.010Z,97944.1922566113
2023-04-11T23:14:18.402Z,97950.74334020191
2023-04-11T23:17:16.412Z,97950.78209823926
2023-04-11T23:21:16.558Z,97953.64314084819
2023-04-11T23:24:17.322Z,97943.03144745402
2023-04-11T23:27:17.328Z,97938.5579456491
2023-04-11T23:31:18.241Z,97932.15621564354
2023-04-11T23:34:16.745Z,97930.24662969708
2023-04-11T23:37:17.279Z,97926.29681396115
2023-04-11T23:41:16.006Z,97924.78143533827
2023-04-11T23:44:16.640Z,97917.1306323304
2023-04-11T23:47:16.338Z,97912.28284399297
2023-04-11T23:51:16.949Z,97906.37912992654
2023-04-11T23:54:17.219Z,97897.108313704
2023-04-11T23:57:17.180Z,97890.28292358725
